Time;durP1;ratioP1;P1;durP2;ratioP2;P2;SDS_P1;SDS_P2;PMS_P1;PMS_P2;Temp;Humidity;BMP_temperature;BMP_pressure;BME280_temperature;BME280_humidity;BME280_pressure;Samples;Min_cycle;Max_cycle;Signal;HPM_P1;HPM_P2
2022/03/31 00:02:09;;;;;;;18.40;13.97;;;;;;;;;;5035109;28;20406;-76
2022/03/31 00:04:37;;;;;;;22.33;14.80;;;;;;;;;;5035082;28;20899;-76
2022/03/31 00:07:03;;;;;;;18.00;13.93;;;;;;;;;;5035372;28;20406;-76
2022/03/31 00:09:30;;;;;;;24.40;15.10;;;;;;;;;;5033681;28;20414;-75
2022/03/31 00:11:59;;;;;;;20.13;14.33;;;;;;;;;;5033137;28;20412;-76
2022/03/31 00:14:26;;;;;;;19.20;13.27;;;;;;;;;;5034876;28;20490;-76
2022/03/31 00:16:52;;;;;;;22.07;15.70;;;;;;;;;;5034842;28;20442;-76
2022/03/31 00:19:18;;;;;;;19.03;13.87;;;;;;;;;;5034857;28;20398;-76
2022/03/31 00:33:58;;;;;;;19.03;14.50;;;;;;;;;;5034508;28;20405;-76
2022/03/31 00:36:24;;;;;;;20.63;14.40;;;;;;;;;;5034326;28;20942;-76
2022/03/31 00:41:38;;;;;;;21.73;13.97;;;;;;;;;;5034283;28;20421;-76
2022/03/31 00:44:05;;;;;;;21.50;16.30;;;;;;;;;;5034173;28;20403;-76
2022/03/31 00:46:31;;;;;;;20.17;15.17;;;;;;;;;;5034763;28;20406;-76
2022/03/31 00:48:57;;;;;;;24.77;17.37;;;;;;;;;;5034449;28;20465;-76
2022/03/31 00:51:24;;;;;;;22.47;17.10;;;;;;;;;;5034133;28;20484;-76
2022/03/31 00:53:51;;;;;;;22.00;16.80;;;;;;;;;;5034177;28;20405;-76
2022/03/31 00:56:19;;;;;;;25.33;17.83;;;;;;;;;;5034236;28;20449;-76
2022/03/31 00:58:45;;;;;;;25.50;18.07;;;;;;;;;;5034164;28;20962;-76
2022/03/31 01:01:13;;;;;;;24.63;17.90;;;;;;;;;;5033952;28;20504;-76
2022/03/31 01:03:39;;;;;;;23.07;17.70;;;;;;;;;;5034211;28;20464;-76
2022/03/31 01:06:06;;;;;;;25.07;17.73;;;;;;;;;;5034056;28;20399;-76
2022/03/31 01:08:33;;;;;;;26.87;19.03;;;;;;;;;;5016289;28;20414;-75
2022/03/31 01:10:59;;;;;;;30.60;18.40;;;;;;;;;;5033791;28;20845;-75
2022/03/31 01:13:25;;;;;;;25.33;19.13;;;;;;;;;;5033740;28;20829;-76
2022/03/31 01:15:51;;;;;;;26.03;18.67;;;;;;;;;;5033478;28;20437;-76
2022/03/31 01:18:18;;;;;;;25.93;19.53;;;;;;;;;;5015551;28;20988;-76
2022/03/31 01:20:44;;;;;;;25.13;18.43;;;;;;;;;;5033384;28;20446;-76
2022/03/31 01:23:11;;;;;;;26.20;18.40;;;;;;;;;;5032804;28;20407;-76
2022/03/31 01:25:37;;;;;;;31.17;19.40;;;;;;;;;;5033599;28;20402;-75
2022/03/31 01:28:03;;;;;;;27.27;19.47;;;;;;;;;;5033400;28;20425;-76
2022/03/31 01:30:29;;;;;;;26.83;20.10;;;;;;;;;;5033288;28;21010;-76
2022/03/31 01:32:56;;;;;;;33.00;20.03;;;;;;;;;;5015792;28;20406;-76
2022/03/31 01:35:23;;;;;;;25.40;17.50;;;;;;;;;;5033264;28;20493;-76
2022/03/31 01:37:50;;;;;;;29.73;20.10;;;;;;;;;;5033195;28;20449;-76
2022/03/31 01:40:16;;;;;;;29.43;19.60;;;;;;;;;;5029701;28;20425;-76
2022/03/31 01:42:42;;;;;;;36.13;19.87;;;;;;;;;;5027007;28;20806;-77
2022/03/31 01:45:14;;;;;;;26.60;19.20;;;;;;;;;;5032392;28;20430;-77
2022/03/31 01:47:40;;;;;;;31.10;20.57;;;;;;;;;;5033502;28;20378;-75
2022/03/31 01:50:09;;;;;;;33.80;22.20;;;;;;;;;;5033579;28;20797;-75
2022/03/31 01:52:35;;;;;;;31.97;21.00;;;;;;;;;;5032982;28;20498;-76
2022/03/31 01:55:01;;;;;;;31.10;20.13;;;;;;;;;;5032955;28;20406;-75
2022/03/31 01:57:27;;;;;;;32.47;21.90;;;;;;;;;;5033034;28;20454;-77
2022/03/31 01:59:54;;;;;;;32.70;20.27;;;;;;;;;;5032680;28;20457;-75
2022/03/31 02:02:22;;;;;;;36.80;22.17;;;;;;;;;;5032898;28;20417;-76
2022/03/31 02:04:48;;;;;;;35.27;22.37;;;;;;;;;;5032929;28;20485;-76
2022/03/31 02:07:14;;;;;;;37.37;22.07;;;;;;;;;;5032774;28;20425;-76
2022/03/31 02:09:41;;;;;;;29.07;19.50;;;;;;;;;;5032711;28;20411;-76
2022/03/31 02:12:07;;;;;;;31.70;21.30;;;;;;;;;;5032982;28;20453;-76
2022/03/31 02:14:37;;;;;;;37.50;23.30;;;;;;;;;;5032716;28;20891;-76
2022/03/31 02:17:04;;;;;;;33.43;22.50;;;;;;;;;;5032629;28;21033;-76
2022/03/31 02:19:31;;;;;;;34.77;21.83;;;;;;;;;;5032755;28;20425;-76
2022/03/31 02:21:57;;;;;;;32.80;22.17;;;;;;;;;;5032749;28;20902;-76
2022/03/31 02:24:23;;;;;;;34.50;23.27;;;;;;;;;;5032998;28;20410;-76
2022/03/31 02:26:49;;;;;;;39.17;23.70;;;;;;;;;;5032869;28;20394;-76
2022/03/31 02:29:16;;;;;;;37.27;22.97;;;;;;;;;;5032951;28;20895;-75
2022/03/31 02:31:42;;;;;;;31.40;21.67;;;;;;;;;;5032639;28;20484;-75
2022/03/31 02:34:08;;;;;;;35.23;23.53;;;;;;;;;;5033383;28;20893;-75
2022/03/31 02:36:34;;;;;;;33.00;21.47;;;;;;;;;;5036587;28;20465;-75
2022/03/31 02:39:00;;;;;;;34.50;22.00;;;;;;;;;;5036694;28;20422;-76
2022/03/31 02:41:27;;;;;;;34.10;22.37;;;;;;;;;;5036305;28;20426;-77
2022/03/31 02:43:53;;;;;;;38.10;23.83;;;;;;;;;;5036645;28;20406;-76
2022/03/31 02:46:19;;;;;;;39.60;24.40;;;;;;;;;;5036172;28;20493;-75
2022/03/31 02:48:45;;;;;;;34.23;22.03;;;;;;;;;;5018597;28;20417;-76
2022/03/31 02:51:11;;;;;;;33.23;21.20;;;;;;;;;;5034983;28;20430;-76
2022/03/31 02:56:22;;;;;;;30.77;20.40;;;;;;;;;;5036292;28;20465;-76
2022/03/31 02:58:48;;;;;;;35.37;20.90;;;;;;;;;;5036423;28;20405;-76
2022/03/31 03:01:14;;;;;;;32.93;22.20;;;;;;;;;;5036375;28;20480;-76
2022/03/31 03:03:40;;;;;;;29.43;20.83;;;;;;;;;;5036273;28;20406;-76
2022/03/31 03:06:07;;;;;;;34.10;21.60;;;;;;;;;;5036424;28;20409;-75
2022/03/31 03:08:33;;;;;;;35.30;22.83;;;;;;;;;;5017387;28;20482;-76
2022/03/31 03:11:00;;;;;;;31.70;19.93;;;;;;;;;;5035561;28;20806;-77
2022/03/31 03:13:26;;;;;;;30.97;21.20;;;;;;;;;;5023020;28;20434;-76
2022/03/31 03:15:54;;;;;;;29.43;20.17;;;;;;;;;;5035940;28;20417;-76
2022/03/31 03:18:20;;;;;;;30.43;22.10;;;;;;;;;;5034387;28;20488;-76
2022/03/31 03:20:46;;;;;;;30.83;21.63;;;;;;;;;;5035566;28;20442;-76
2022/03/31 03:23:12;;;;;;;31.80;21.53;;;;;;;;;;5017972;28;20513;-76
2022/03/31 03:25:38;;;;;;;32.40;21.53;;;;;;;;;;5035824;28;20402;-76
2022/03/31 03:28:04;;;;;;;32.50;21.97;;;;;;;;;;5035708;28;20808;-75
2022/03/31 03:30:30;;;;;;;33.23;21.23;;;;;;;;;;5035870;28;20454;-76
2022/03/31 03:32:57;;;;;;;29.57;21.80;;;;;;;;;;5035690;28;20429;-76
2022/03/31 03:35:23;;;;;;;34.13;21.67;;;;;;;;;;5035652;28;20439;-76
2022/03/31 03:37:49;;;;;;;33.87;23.63;;;;;;;;;;5017646;28;20453;-76
2022/03/31 03:40:15;;;;;;;34.20;22.00;;;;;;;;;;5035711;28;20925;-75
2022/03/31 03:42:42;;;;;;;30.47;22.33;;;;;;;;;;5035450;28;20402;-76
2022/03/31 03:45:10;;;;;;;35.53;21.60;;;;;;;;;;5035590;28;20410;-76
2022/03/31 03:47:36;;;;;;;33.67;21.50;;;;;;;;;;5034715;28;20412;-75
2022/03/31 03:50:03;;;;;;;31.40;21.47;;;;;;;;;;5017430;28;20426;-76
2022/03/31 03:52:30;;;;;;;31.03;20.00;;;;;;;;;;5035367;28;20413;-76
2022/03/31 03:54:56;;;;;;;29.70;20.47;;;;;;;;;;5035287;28;20483;-75
2022/03/31 03:57:23;;;;;;;39.90;24.10;;;;;;;;;;5035003;28;20457;-76
2022/03/31 03:59:49;;;;;;;32.60;23.17;;;;;;;;;;5035269;28;20497;-76
2022/03/31 04:02:15;;;;;;;33.37;22.60;;;;;;;;;;5035871;28;20410;-76
2022/03/31 04:04:41;;;;;;;32.00;20.70;;;;;;;;;;5035712;28;20779;-76
2022/03/31 04:07:07;;;;;;;31.40;21.90;;;;;;;;;;5025590;28;20994;-76
2022/03/31 04:09:33;;;;;;;32.80;22.50;;;;;;;;;;5015204;28;20411;-76
2022/03/31 04:11:59;;;;;;;29.83;20.50;;;;;;;;;;5015238;28;20399;-76
2022/03/31 04:14:25;;;;;;;30.17;21.73;;;;;;;;;;5033533;28;20437;-76
2022/03/31 04:16:54;;;;;;;31.87;21.27;;;;;;;;;;5034801;28;20469;-75
2022/03/31 04:19:20;;;;;;;31.10;21.10;;;;;;;;;;5035105;28;20403;-76
2022/03/31 04:21:46;;;;;;;32.00;21.10;;;;;;;;;;5034837;28;20440;-75
2022/03/31 04:24:12;;;;;;;31.93;22.10;;;;;;;;;;5017070;28;20402;-75
2022/03/31 04:26:38;;;;;;;35.93;21.33;;;;;;;;;;5034763;28;20813;-75
2022/03/31 04:29:08;;;;;;;31.97;22.43;;;;;;;;;;5034735;28;20769;-76
2022/03/31 04:31:36;;;;;;;36.70;21.70;;;;;;;;;;5034949;28;20476;-76
2022/03/31 04:34:02;;;;;;;32.73;21.30;;;;;;;;;;5034797;28;20549;-75
2022/03/31 04:36:28;;;;;;;32.90;20.67;;;;;;;;;;5017108;28;20461;-75
2022/03/31 04:38:54;;;;;;;30.77;20.20;;;;;;;;;;5034565;28;20464;-76
2022/03/31 04:41:20;;;;;;;32.60;20.73;;;;;;;;;;5016810;28;20427;-75
2022/03/31 04:43:46;;;;;;;34.27;22.27;;;;;;;;;;5034535;28;20406;-75
2022/03/31 04:46:12;;;;;;;28.30;20.00;;;;;;;;;;5034330;28;20907;-76
2022/03/31 04:48:39;;;;;;;31.57;20.87;;;;;;;;;;5034086;28;20429;-75
2022/03/31 04:51:06;;;;;;;32.00;21.33;;;;;;;;;;5034472;28;20956;-75
2022/03/31 04:53:32;;;;;;;31.10;20.40;;;;;;;;;;5034110;28;20410;-77
2022/03/31 04:55:58;;;;;;;30.47;19.77;;;;;;;;;;5034079;28;20794;-76
2022/03/31 04:58:24;;;;;;;28.73;20.80;;;;;;;;;;5034199;28;20405;-76
2022/03/31 05:00:50;;;;;;;30.90;21.20;;;;;;;;;;5033844;28;20423;-76
2022/03/31 05:03:16;;;;;;;29.27;20.07;;;;;;;;;;5033994;28;20404;-76
2022/03/31 05:05:42;;;;;;;28.50;20.20;;;;;;;;;;5033819;28;20410;-75
2022/03/31 05:08:08;;;;;;;30.60;21.33;;;;;;;;;;5016207;28;20415;-76
2022/03/31 05:10:35;;;;;;;34.73;21.03;;;;;;;;;;5033882;28;20426;-76
2022/03/31 05:13:01;;;;;;;28.10;20.33;;;;;;;;;;5033846;28;20414;-76
2022/03/31 05:15:27;;;;;;;33.17;21.50;;;;;;;;;;5033839;28;20417;-76
2022/03/31 05:17:53;;;;;;;27.97;20.50;;;;;;;;;;5033578;28;20485;-76
2022/03/31 05:20:20;;;;;;;32.77;20.73;;;;;;;;;;5058847;23;23473;-78
2022/03/31 05:22:46;;;;;;;31.73;21.13;;;;;;;;;;5038419;28;20480;-77
2022/03/31 05:25:13;;;;;;;29.10;20.47;;;;;;;;;;5035714;28;20449;-77
2022/03/31 05:27:43;;;;;;;30.40;19.77;;;;;;;;;;5018357;28;20775;-77
2022/03/31 05:30:09;;;;;;;27.93;19.47;;;;;;;;;;5017577;28;20403;-78
2022/03/31 05:32:35;;;;;;;31.77;22.07;;;;;;;;;;5034942;28;20480;-76
2022/03/31 05:35:01;;;;;;;32.97;22.00;;;;;;;;;;5033868;28;20395;-77
2022/03/31 05:37:27;;;;;;;30.90;21.93;;;;;;;;;;5033749;28;20965;-77
2022/03/31 05:39:53;;;;;;;36.30;23.53;;;;;;;;;;5034243;28;20399;-77
2022/03/31 05:42:19;;;;;;;35.20;23.67;;;;;;;;;;5034170;28;20488;-77
2022/03/31 05:44:45;;;;;;;35.47;22.43;;;;;;;;;;5033705;28;20442;-77
2022/03/31 05:47:11;;;;;;;34.60;23.10;;;;;;;;;;5033524;28;20497;-77
2022/03/31 05:49:37;;;;;;;28.73;20.40;;;;;;;;;;5033598;28;20505;-77
2022/03/31 05:52:04;;;;;;;32.70;22.50;;;;;;;;;;5033204;28;20426;-77
2022/03/31 05:54:30;;;;;;;32.83;21.67;;;;;;;;;;5015495;28;20410;-77
2022/03/31 05:56:57;;;;;;;33.93;21.40;;;;;;;;;;5033040;28;20465;-77
2022/03/31 05:59:23;;;;;;;31.20;22.60;;;;;;;;;;5033597;28;20438;-77
2022/03/31 06:01:49;;;;;;;32.23;20.97;;;;;;;;;;5015974;28;20431;-77
2022/03/31 06:04:20;;;;;;;37.10;21.77;;;;;;;;;;5034891;28;20402;-76
2022/03/31 06:06:46;;;;;;;32.10;21.17;;;;;;;;;;5034291;28;20387;-77
2022/03/31 06:09:14;;;;;;;30.43;20.47;;;;;;;;;;5033032;28;20508;-77
2022/03/31 06:11:40;;;;;;;32.37;21.57;;;;;;;;;;5034785;28;20930;-78
2022/03/31 06:14:06;;;;;;;31.67;21.53;;;;;;;;;;5034409;28;20398;-77
2022/03/31 06:16:32;;;;;;;30.50;20.43;;;;;;;;;;5033376;28;20871;-77
2022/03/31 06:18:58;;;;;;;27.73;19.17;;;;;;;;;;5033306;28;20401;-76
2022/03/31 06:21:24;;;;;;;32.87;21.87;;;;;;;;;;5033526;28;20530;-77
2022/03/31 06:23:51;;;;;;;30.97;21.20;;;;;;;;;;5033400;28;20403;-77
2022/03/31 06:26:17;;;;;;;29.50;22.27;;;;;;;;;;5032584;28;20442;-77
2022/03/31 06:28:43;;;;;;;29.80;21.80;;;;;;;;;;5033457;28;20436;-77
2022/03/31 06:31:09;;;;;;;29.70;21.17;;;;;;;;;;5033472;28;20819;-77
2022/03/31 06:33:37;;;;;;;31.73;20.93;;;;;;;;;;5034453;28;20406;-78
2022/03/31 06:36:03;;;;;;;31.43;21.70;;;;;;;;;;5033825;28;20402;-78
2022/03/31 06:38:29;;;;;;;29.43;20.90;;;;;;;;;;5033143;28;20401;-78
2022/03/31 06:41:10;;;;;;;29.20;20.43;;;;;;;;;;5018070;28;20584;-77
2022/03/31 06:43:37;;;;;;;32.57;22.43;;;;;;;;;;5037477;28;20458;-78
2022/03/31 06:46:04;;;;;;;30.03;21.63;;;;;;;;;;5035883;28;20497;-76
2022/03/31 06:48:30;;;;;;;33.13;22.20;;;;;;;;;;5034352;28;20751;-77
2022/03/31 06:50:57;;;;;;;37.57;23.17;;;;;;;;;;5030474;28;20468;-77
2022/03/31 06:53:23;;;;;;;32.37;21.63;;;;;;;;;;5027337;28;20410;-79
2022/03/31 06:55:49;;;;;;;34.37;24.23;;;;;;;;;;5034293;28;20426;-79
2022/03/31 06:58:15;;;;;;;33.63;22.33;;;;;;;;;;5033054;28;20426;-79
2022/03/31 07:00:42;;;;;;;32.00;20.77;;;;;;;;;;5022226;28;20456;-79
2022/03/31 07:03:08;;;;;;;28.90;20.77;;;;;;;;;;5032414;28;20999;-78
2022/03/31 07:05:37;;;;;;;35.47;19.50;;;;;;;;;;5033508;28;20922;-79
2022/03/31 07:08:04;;;;;;;33.13;21.20;;;;;;;;;;5043976;28;20438;-79
2022/03/31 07:10:30;;;;;;;33.83;22.03;;;;;;;;;;5033469;28;20529;-77
2022/03/31 07:12:56;;;;;;;34.70;21.00;;;;;;;;;;5030335;28;20454;-78
2022/03/31 07:15:23;;;;;;;28.00;19.80;;;;;;;;;;5011096;28;20415;-77
2022/03/31 07:17:49;;;;;;;32.90;22.40;;;;;;;;;;5031643;28;20481;-78
2022/03/31 07:20:15;;;;;;;28.97;19.73;;;;;;;;;;5031711;28;20406;-77
2022/03/31 07:22:45;;;;;;;31.60;21.77;;;;;;;;;;5032241;28;20431;-78
2022/03/31 07:25:11;;;;;;;31.00;22.07;;;;;;;;;;5035912;28;20457;-78
2022/03/31 07:27:37;;;;;;;34.00;20.23;;;;;;;;;;5018208;28;20430;-79
2022/03/31 07:30:04;;;;;;;27.50;20.27;;;;;;;;;;5037643;28;20438;-78
2022/03/31 07:32:30;;;;;;;28.47;20.63;;;;;;;;;;5039449;28;20449;-76
2022/03/31 07:34:56;;;;;;;27.53;20.80;;;;;;;;;;5037127;28;20422;-76
2022/03/31 07:37:22;;;;;;;33.90;21.50;;;;;;;;;;5016500;28;20450;-77
2022/03/31 07:39:48;;;;;;;27.17;20.10;;;;;;;;;;5016680;28;20414;-77
2022/03/31 07:42:14;;;;;;;30.20;21.97;;;;;;;;;;5017616;28;20516;-77
2022/03/31 07:44:40;;;;;;;30.37;20.20;;;;;;;;;;5033433;28;20578;-77
2022/03/31 07:47:07;;;;;;;30.77;20.70;;;;;;;;;;5032931;28;20512;-77
2022/03/31 07:49:33;;;;;;;29.53;20.80;;;;;;;;;;5034022;28;20899;-77
2022/03/31 07:51:59;;;;;;;28.80;19.80;;;;;;;;;;5032092;28;20444;-77
2022/03/31 07:54:25;;;;;;;29.00;21.63;;;;;;;;;;5034451;28;20411;-77
2022/03/31 07:56:52;;;;;;;26.27;20.27;;;;;;;;;;5030692;28;20450;-76
2022/03/31 07:59:23;;;;;;;26.20;20.20;;;;;;;;;;5030665;28;20918;-77
2022/03/31 08:01:49;;;;;;;30.00;19.43;;;;;;;;;;5033820;28;20509;-77
2022/03/31 08:04:16;;;;;;;28.07;19.57;;;;;;;;;;5034106;28;20441;-78
2022/03/31 08:06:43;;;;;;;25.03;19.87;;;;;;;;;;5033861;28;20415;-77
2022/03/31 08:09:10;;;;;;;26.90;18.70;;;;;;;;;;5035943;28;20450;-77
2022/03/31 08:11:36;;;;;;;25.60;20.13;;;;;;;;;;5032923;28;20449;-77
2022/03/31 08:14:03;;;;;;;30.50;20.30;;;;;;;;;;5033384;28;20414;-76
2022/03/31 08:16:29;;;;;;;35.93;24.60;;;;;;;;;;5031977;28;20478;-77
2022/03/31 08:18:55;;;;;;;34.10;23.07;;;;;;;;;;5033634;28;20425;-77
2022/03/31 08:21:21;;;;;;;31.57;21.43;;;;;;;;;;5032007;28;20831;-76
2022/03/31 08:23:47;;;;;;;30.30;21.43;;;;;;;;;;5032963;28;20411;-76
2022/03/31 08:26:13;;;;;;;34.80;20.80;;;;;;;;;;5015842;28;20573;-76
2022/03/31 08:28:40;;;;;;;33.67;21.90;;;;;;;;;;5030520;28;20975;-77
2022/03/31 08:31:06;;;;;;;30.10;20.20;;;;;;;;;;5033008;28;20441;-77
2022/03/31 08:33:32;;;;;;;33.23;23.20;;;;;;;;;;5032228;28;20428;-76
2022/03/31 08:35:58;;;;;;;34.90;23.20;;;;;;;;;;5006550;28;20550;-77
2022/03/31 08:38:24;;;;;;;30.40;21.40;;;;;;;;;;5014269;28;20418;-77
2022/03/31 08:40:51;;;;;;;32.33;21.43;;;;;;;;;;5033496;28;20433;-77
2022/03/31 08:43:19;;;;;;;30.03;21.70;;;;;;;;;;5029939;28;20505;-77
2022/03/31 08:45:54;;;;;;;29.37;22.17;;;;;;;;;;5031438;28;20417;-77
2022/03/31 08:48:21;;;;;;;29.00;19.23;;;;;;;;;;5034150;28;20442;-77
2022/03/31 08:50:47;;;;;;;28.30;20.00;;;;;;;;;;5031354;28;20452;-77
2022/03/31 08:53:15;;;;;;;26.70;18.87;;;;;;;;;;5023615;28;20435;-77
2022/03/31 08:55:41;;;;;;;28.60;20.43;;;;;;;;;;5035921;28;20514;-78
2022/03/31 08:58:07;;;;;;;24.87;19.30;;;;;;;;;;5041498;28;20490;-78
2022/03/31 09:00:33;;;;;;;29.38;19.92;;;;;;;;;;5047969;28;20480;-78
2022/03/31 09:03:03;;;;;;;30.87;19.40;;;;;;;;;;5043321;28;20168;-79
2022/03/31 09:05:36;;;;;;;24.60;18.87;;;;;;;;;;5043027;28;20518;-78
2022/03/31 09:08:05;;;;;;;24.47;17.00;;;;;;;;;;5044663;28;20464;-78
2022/03/31 09:10:39;;;;;;;26.13;18.80;;;;;;;;;;5044145;28;20450;-78
2022/03/31 09:13:17;;;;;;;29.43;17.17;;;;;;;;;;5035847;28;20917;-77
2022/03/31 09:15:48;;;;;;;25.97;17.70;;;;;;;;;;5030415;28;20411;-77
2022/03/31 09:18:16;;;;;;;28.33;18.37;;;;;;;;;;5024465;28;20462;-77
2022/03/31 09:20:43;;;;;;;23.03;16.73;;;;;;;;;;5035317;28;20450;-77
2022/03/31 09:23:15;;;;;;;26.40;18.20;;;;;;;;;;5032513;28;20805;-79
2022/03/31 09:25:41;;;;;;;25.70;18.23;;;;;;;;;;5034780;28;20453;-78
2022/03/31 09:28:23;;;;;;;24.27;17.27;;;;;;;;;;5018917;28;20445;-78
2022/03/31 09:30:54;;;;;;;24.50;17.20;;;;;;;;;;5036833;28;20488;-78
2022/03/31 09:33:27;;;;;;;24.70;18.30;;;;;;;;;;5036335;28;20497;-78
2022/03/31 09:36:13;;;;;;;27.23;17.70;;;;;;;;;;5035208;28;20447;-77
2022/03/31 09:38:39;;;;;;;25.80;16.97;;;;;;;;;;5035615;28;20452;-77
2022/03/31 09:41:19;;;;;;;24.60;18.40;;;;;;;;;;5039702;28;20918;-78
2022/03/31 09:43:46;;;;;;;25.43;16.70;;;;;;;;;;5034449;28;20418;-75
2022/03/31 09:46:25;;;;;;;26.60;18.67;;;;;;;;;;5038086;28;20436;-78
2022/03/31 09:48:52;;;;;;;26.33;19.80;;;;;;;;;;5031247;28;20414;-77
2022/03/31 09:51:19;;;;;;;26.47;17.93;;;;;;;;;;5030269;28;20690;-78
2022/03/31 09:53:46;;;;;;;26.35;18.45;;;;;;;;;;5031045;28;20423;-78
2022/03/31 09:56:13;;;;;;;25.03;16.83;;;;;;;;;;5037559;28;20680;-79
2022/03/31 09:58:46;;;;;;;28.63;18.00;;;;;;;;;;5035650;28;20468;-78
2022/03/31 10:01:13;;;;;;;32.20;19.83;;;;;;;;;;5036252;28;20457;-78
2022/03/31 10:03:39;;;;;;;26.80;18.60;;;;;;;;;;5034729;28;20410;-78
2022/03/31 10:06:06;;;;;;;29.77;18.40;;;;;;;;;;5028934;28;20499;-78
2022/03/31 10:08:42;;;;;;;26.57;18.40;;;;;;;;;;5031766;28;20933;-78
2022/03/31 10:11:08;;;;;;;28.43;17.83;;;;;;;;;;5037326;28;20441;-78
2022/03/31 10:13:40;;;;;;;27.83;19.23;;;;;;;;;;5038208;28;20783;-79
2022/03/31 10:16:13;;;;;;;30.03;17.10;;;;;;;;;;5017809;28;20441;-79
2022/03/31 10:18:40;;;;;;;31.30;19.10;;;;;;;;;;5038225;28;20712;-78
2022/03/31 10:21:06;;;;;;;28.93;19.67;;;;;;;;;;5038071;28;20802;-78
2022/03/31 10:26:36;;;;;;;28.70;18.83;;;;;;;;;;5016953;28;20531;-79
2022/03/31 10:29:09;;;;;;;25.97;18.70;;;;;;;;;;5035989;28;20414;-78
2022/03/31 10:31:40;;;;;;;28.73;16.60;;;;;;;;;;5035835;28;20477;-77
2022/03/31 10:34:06;;;;;;;25.70;16.93;;;;;;;;;;5007006;28;20414;-78
2022/03/31 10:36:40;;;;;;;24.93;17.33;;;;;;;;;;5036966;28;20537;-78
2022/03/31 10:39:08;;;;;;;24.40;17.73;;;;;;;;;;5037634;28;20438;-78
2022/03/31 10:41:34;;;;;;;28.50;17.70;;;;;;;;;;5036864;28;20442;-78
2022/03/31 10:44:03;;;;;;;23.67;16.90;;;;;;;;;;5036916;28;20444;-78
2022/03/31 10:46:32;;;;;;;24.40;16.90;;;;;;;;;;5034186;28;20926;-79
2022/03/31 10:48:58;;;;;;;28.33;16.27;;;;;;;;;;5035101;28;20434;-78
2022/03/31 10:51:32;;;;;;;25.20;17.23;;;;;;;;;;5018637;28;20432;-78
2022/03/31 10:53:58;;;;;;;27.10;16.97;;;;;;;;;;5036693;28;20595;-78
2022/03/31 10:56:28;;;;;;;27.27;18.43;;;;;;;;;;5034695;28;20453;-78
2022/03/31 10:58:55;;;;;;;23.93;16.33;;;;;;;;;;5035097;28;20437;-78
2022/03/31 11:01:22;;;;;;;26.40;16.73;;;;;;;;;;5035304;28;20452;-76
2022/03/31 11:03:50;;;;;;;24.70;16.40;;;;;;;;;;5035251;28;20497;-78
2022/03/31 11:06:18;;;;;;;24.93;18.40;;;;;;;;;;5035934;28;20910;-77
2022/03/31 11:08:46;;;;;;;26.83;16.80;;;;;;;;;;5034464;28;20505;-78
2022/03/31 11:11:23;;;;;;;28.47;16.60;;;;;;;;;;5042199;28;20559;-77
2022/03/31 11:13:49;;;;;;;22.90;14.47;;;;;;;;;;5033519;28;20427;-77
2022/03/31 11:16:15;;;;;;;22.13;15.40;;;;;;;;;;5032978;28;20902;-77
2022/03/31 11:18:42;;;;;;;23.10;15.97;;;;;;;;;;5038184;28;20422;-77
2022/03/31 11:23:47;;;;;;;20.03;14.43;;;;;;;;;;5042933;28;20477;-77
2022/03/31 11:26:15;;;;;;;19.40;14.93;;;;;;;;;;5049254;28;20425;-77
2022/03/31 11:28:41;;;;;;;25.73;16.70;;;;;;;;;;5046054;28;20429;-77
2022/03/31 11:31:14;;;;;;;28.27;15.00;;;;;;;;;;5055208;28;20417;-77
2022/03/31 11:33:40;;;;;;;23.70;16.03;;;;;;;;;;5030999;28;20627;-77
2022/03/31 11:36:06;;;;;;;26.00;15.73;;;;;;;;;;5027770;28;20402;-76
2022/03/31 11:38:32;;;;;;;29.60;16.33;;;;;;;;;;5035080;28;20417;-76
2022/03/31 11:40:58;;;;;;;20.67;14.93;;;;;;;;;;5026041;28;20457;-76
2022/03/31 11:43:25;;;;;;;25.30;18.40;;;;;;;;;;5012784;28;20445;-77
2022/03/31 11:45:52;;;;;;;25.10;16.20;;;;;;;;;;5024788;28;20426;-76
2022/03/31 11:48:22;;;;;;;31.53;20.20;;;;;;;;;;5031416;28;20426;-76
2022/03/31 11:50:52;;;;;;;27.30;18.53;;;;;;;;;;5031634;28;20475;-76
2022/03/31 11:53:19;;;;;;;33.23;19.30;;;;;;;;;;5026208;28;20446;-77
2022/03/31 11:55:57;;;;;;;27.40;18.50;;;;;;;;;;5030475;28;20445;-77
2022/03/31 11:58:24;;;;;;;27.30;18.23;;;;;;;;;;5026743;28;20450;-77
2022/03/31 12:00:50;;;;;;;28.50;18.40;;;;;;;;;;5031830;28;20453;-76
2022/03/31 12:03:17;;;;;;;27.00;16.67;;;;;;;;;;5011501;28;20427;-77
2022/03/31 12:05:44;;;;;;;28.63;17.77;;;;;;;;;;5030110;28;20528;-76
2022/03/31 12:08:10;;;;;;;25.10;17.47;;;;;;;;;;5028226;28;20427;-76
2022/03/31 12:10:37;;;;;;;29.40;17.67;;;;;;;;;;5029244;28;20430;-76
2022/03/31 12:13:05;;;;;;;31.33;18.17;;;;;;;;;;5017294;28;20455;-75
2022/03/31 12:15:31;;;;;;;25.17;17.80;;;;;;;;;;5029385;28;20503;-76
2022/03/31 12:18:04;;;;;;;29.73;18.30;;;;;;;;;;5004710;28;20451;-77
2022/03/31 12:20:30;;;;;;;24.67;16.40;;;;;;;;;;5031279;28;20418;-76
2022/03/31 12:22:57;;;;;;;23.00;15.90;;;;;;;;;;5025096;28;20451;-76
2022/03/31 12:25:27;;;;;;;26.70;16.07;;;;;;;;;;5007544;28;20413;-77
2022/03/31 12:27:53;;;;;;;24.90;16.47;;;;;;;;;;5030180;28;20477;-76
2022/03/31 12:30:19;;;;;;;22.23;16.43;;;;;;;;;;5028015;28;20747;-76
2022/03/31 12:32:48;;;;;;;24.53;15.93;;;;;;;;;;5023494;28;20489;-76
2022/03/31 12:35:15;;;;;;;22.80;15.53;;;;;;;;;;5025072;28;20458;-76
2022/03/31 12:37:48;;;;;;;26.13;16.50;;;;;;;;;;5029803;28;20455;-76
2022/03/31 12:40:15;;;;;;;22.73;16.80;;;;;;;;;;5025612;28;20411;-76
2022/03/31 12:42:54;;;;;;;22.53;14.97;;;;;;;;;;5028090;28;20443;-76
2022/03/31 12:45:21;;;;;;;21.30;15.87;;;;;;;;;;5027708;28;20780;-75
2022/03/31 12:47:47;;;;;;;21.87;15.87;;;;;;;;;;5032092;28;20817;-76
2022/03/31 12:50:17;;;;;;;20.70;15.03;;;;;;;;;;5031196;28;20419;-76
2022/03/31 12:52:58;;;;;;;23.87;15.30;;;;;;;;;;5026140;28;20454;-76
2022/03/31 12:55:28;;;;;;;24.97;15.40;;;;;;;;;;5014416;28;20941;-77
2022/03/31 12:57:55;;;;;;;29.20;16.60;;;;;;;;;;5032286;28;20557;-77
2022/03/31 13:00:22;;;;;;;20.30;13.83;;;;;;;;;;5027917;28;20461;-77
2022/03/31 13:02:48;;;;;;;19.97;15.43;;;;;;;;;;5022913;28;20431;-77
2022/03/31 13:05:21;;;;;;;19.57;13.67;;;;;;;;;;5019952;28;20434;-76
2022/03/31 13:07:48;;;;;;;21.73;15.07;;;;;;;;;;5024868;28;20430;-76
2022/03/31 13:10:15;;;;;;;23.57;15.20;;;;;;;;;;5029698;28;20480;-77
2022/03/31 13:12:41;;;;;;;24.97;15.90;;;;;;;;;;5026067;28;20802;-77
2022/03/31 13:15:12;;;;;;;22.63;14.63;;;;;;;;;;5023389;28;20450;-76
2022/03/31 13:17:38;;;;;;;20.70;14.60;;;;;;;;;;5026246;28;20462;-76
2022/03/31 13:20:05;;;;;;;19.23;13.10;;;;;;;;;;5028306;28;20410;-76
2022/03/31 13:22:31;;;;;;;18.67;12.03;;;;;;;;;;5021494;28;21083;-76
2022/03/31 13:24:57;;;;;;;18.07;12.37;;;;;;;;;;5025847;28;20410;-77
2022/03/31 13:27:24;;;;;;;20.20;12.77;;;;;;;;;;5025712;28;20779;-77
2022/03/31 13:29:51;;;;;;;18.90;12.90;;;;;;;;;;5020387;28;20419;-76
2022/03/31 13:32:17;;;;;;;16.23;11.83;;;;;;;;;;5005636;28;20459;-76
2022/03/31 13:34:46;;;;;;;18.93;11.77;;;;;;;;;;5025391;28;20424;-77
2022/03/31 13:37:13;;;;;;;18.70;13.00;;;;;;;;;;5030223;28;20492;-76
2022/03/31 13:39:39;;;;;;;16.77;11.40;;;;;;;;;;5027649;28;20725;-76
2022/03/31 13:42:06;;;;;;;18.23;11.60;;;;;;;;;;5030411;28;20433;-77
2022/03/31 13:44:32;;;;;;;18.60;10.67;;;;;;;;;;5026153;28;20946;-76
2022/03/31 13:46:59;;;;;;;16.80;10.47;;;;;;;;;;5020800;28;20437;-76
2022/03/31 13:49:25;;;;;;;17.07;11.07;;;;;;;;;;5026531;28;20467;-76
2022/03/31 13:51:52;;;;;;;21.40;11.23;;;;;;;;;;5027994;28;20892;-75
2022/03/31 13:54:19;;;;;;;23.13;11.90;;;;;;;;;;5029126;28;20446;-76
2022/03/31 13:56:47;;;;;;;18.10;10.23;;;;;;;;;;5026048;28;20994;-76
2022/03/31 14:01:59;;;;;;;21.00;10.57;;;;;;;;;;5025620;28;20446;-76
2022/03/31 14:04:26;;;;;;;16.80;11.40;;;;;;;;;;5026668;28;20907;-76
2022/03/31 14:06:52;;;;;;;19.70;11.87;;;;;;;;;;5027997;28;20415;-76
2022/03/31 14:09:20;;;;;;;22.70;12.40;;;;;;;;;;5024464;28;20427;-76
2022/03/31 14:11:46;;;;;;;17.80;12.00;;;;;;;;;;5024254;28;20483;-77
2022/03/31 14:14:14;;;;;;;17.00;10.83;;;;;;;;;;5028111;28;20415;-77
2022/03/31 14:16:40;;;;;;;15.57;10.70;;;;;;;;;;5018134;28;20458;-77
2022/03/31 14:19:07;;;;;;;19.50;11.50;;;;;;;;;;5008455;28;20770;-77
2022/03/31 14:21:34;;;;;;;19.53;12.00;;;;;;;;;;5011557;28;20553;-77
2022/03/31 14:24:00;;;;;;;17.50;11.27;;;;;;;;;;5027467;28;20414;-76
2022/03/31 14:26:26;;;;;;;23.37;11.37;;;;;;;;;;5028702;28;20425;-76
2022/03/31 14:28:53;;;;;;;19.17;10.47;;;;;;;;;;5027926;28;20953;-76
2022/03/31 14:31:22;;;;;;;18.30;10.33;;;;;;;;;;5027594;28;20438;-76
2022/03/31 14:33:49;;;;;;;17.37;11.30;;;;;;;;;;5029749;28;20422;-74
2022/03/31 14:36:15;;;;;;;16.20;10.83;;;;;;;;;;5033437;28;20791;-76
2022/03/31 14:38:41;;;;;;;17.87;10.50;;;;;;;;;;5031969;28;20501;-75
2022/03/31 14:41:11;;;;;;;23.43;12.80;;;;;;;;;;5030247;28;20418;-75
2022/03/31 14:43:38;;;;;;;19.47;11.27;;;;;;;;;;5010839;28;20449;-75